sensor_id;sensor_type;location;lat;lon;timestamp;temperature;humidity
59660;DHT22;45534;52.690;6.268;2023-10-08T00:01:35;17.10;99.90
59660;DHT22;45534;52.690;6.268;2023-10-08T00:04:08;17.00;99.90
59660;DHT22;45534;52.690;6.268;2023-10-08T00:06:34;16.90;99.90
59660;DHT22;45534;52.690;6.268;2023-10-08T00:09:00;16.80;99.90
59660;DHT22;45534;52.690;6.268;2023-10-08T00:11:31;16.70;99.90
59660;DHT22;45534;52.690;6.268;2023-10-08T00:13:57;16.70;99.90
59660;DHT22;45534;52.690;6.268;2023-10-08T00:16:23;16.60;99.90
59660;DHT22;45534;52.690;6.268;2023-10-08T00:18:49;16.60;99.90
59660;DHT22;45534;52.690;6.268;2023-10-08T00:21:16;16.40;99.90
59660;DHT22;45534;52.690;6.268;2023-10-08T00:23:43;16.00;99.90
59660;DHT22;45534;52.690;6.268;2023-10-08T00:26:15;15.70;99.90
59660;DHT22;45534;52.690;6.268;2023-10-08T00:28:44;15.40;99.90
59660;DHT22;45534;52.690;6.268;2023-10-08T00:31:14;15.10;99.90
59660;DHT22;45534;52.690;6.268;2023-10-08T00:33:43;14.90;99.90
59660;DHT22;45534;52.690;6.268;2023-10-08T00:36:10;14.80;99.90
59660;DHT22;45534;52.690;6.268;2023-10-08T00:38:49;14.60;99.90
59660;DHT22;45534;52.690;6.268;2023-10-08T00:41:18;14.40;99.90
59660;DHT22;45534;52.690;6.268;2023-10-08T00:43:47;14.30;99.90
59660;DHT22;45534;52.690;6.268;2023-10-08T00:46:13;14.20;99.90
59660;DHT22;45534;52.690;6.268;2023-10-08T00:49:02;14.20;99.90
59660;DHT22;45534;52.690;6.268;2023-10-08T00:51:59;14.10;99.90
59660;DHT22;45534;52.690;6.268;2023-10-08T00:54:43;14.10;99.90
59660;DHT22;45534;52.690;6.268;2023-10-08T00:57:29;14.10;99.90
59660;DHT22;45534;52.690;6.268;2023-10-08T00:59:56;14.10;99.90
59660;DHT22;45534;52.690;6.268;2023-10-08T01:02:29;14.00;99.90
59660;DHT22;45534;52.690;6.268;2023-10-08T01:05:17;14.00;99.90
59660;DHT22;45534;52.690;6.268;2023-10-08T01:07:54;14.00;99.90
59660;DHT22;45534;52.690;6.268;2023-10-08T01:10:21;13.90;99.90
59660;DHT22;45534;52.690;6.268;2023-10-08T01:12:50;14.00;99.90
59660;DHT22;45534;52.690;6.268;2023-10-08T01:15:37;14.00;99.90
59660;DHT22;45534;52.690;6.268;2023-10-08T01:18:03;13.90;99.90
59660;DHT22;45534;52.690;6.268;2023-10-08T01:20:31;14.00;99.90
59660;DHT22;45534;52.690;6.268;2023-10-08T01:23:06;14.00;99.90
59660;DHT22;45534;52.690;6.268;2023-10-08T01:25:43;14.00;99.90
59660;DHT22;45534;52.690;6.268;2023-10-08T01:28:09;14.00;99.90
59660;DHT22;45534;52.690;6.268;2023-10-08T01:30:41;13.90;99.90
59660;DHT22;45534;52.690;6.268;2023-10-08T01:33:08;13.90;99.90
59660;DHT22;45534;52.690;6.268;2023-10-08T01:35:37;13.90;99.90
59660;DHT22;45534;52.690;6.268;2023-10-08T01:38:03;13.90;99.90
59660;DHT22;45534;52.690;6.268;2023-10-08T01:40:29;13.80;99.90
59660;DHT22;45534;52.690;6.268;2023-10-08T01:42:56;13.80;99.90
59660;DHT22;45534;52.690;6.268;2023-10-08T01:45:30;13.70;99.90
59660;DHT22;45534;52.690;6.268;2023-10-08T01:47:57;13.70;99.90
59660;DHT22;45534;52.690;6.268;2023-10-08T01:50:23;13.70;99.90
59660;DHT22;45534;52.690;6.268;2023-10-08T01:52:55;13.70;99.90
59660;DHT22;45534;52.690;6.268;2023-10-08T01:55:21;13.70;99.90
59660;DHT22;45534;52.690;6.268;2023-10-08T01:57:49;13.70;99.90
59660;DHT22;45534;52.690;6.268;2023-10-08T02:00:17;13.70;99.90
59660;DHT22;45534;52.690;6.268;2023-10-08T02:02:51;13.70;99.90
59660;DHT22;45534;52.690;6.268;2023-10-08T02:05:19;13.70;99.90
59660;DHT22;45534;52.690;6.268;2023-10-08T02:07:46;13.70;99.90
59660;DHT22;45534;52.690;6.268;2023-10-08T02:10:12;13.60;99.90
59660;DHT22;45534;52.690;6.268;2023-10-08T02:12:42;13.70;99.90
59660;DHT22;45534;52.690;6.268;2023-10-08T02:15:09;13.60;99.90
59660;DHT22;45534;52.690;6.268;2023-10-08T02:17:37;13.60;99.90
59660;DHT22;45534;52.690;6.268;2023-10-08T02:20:04;13.60;99.90
59660;DHT22;45534;52.690;6.268;2023-10-08T02:22:31;13.60;99.90
59660;DHT22;45534;52.690;6.268;2023-10-08T02:24:59;13.60;99.90
59660;DHT22;45534;52.690;6.268;2023-10-08T02:27:27;13.60;99.90
59660;DHT22;45534;52.690;6.268;2023-10-08T02:29:53;13.60;99.90
59660;DHT22;45534;52.690;6.268;2023-10-08T02:32:20;13.60;99.90
59660;DHT22;45534;52.690;6.268;2023-10-08T02:34:48;13.60;99.90
59660;DHT22;45534;52.690;6.268;2023-10-08T02:37:15;13.60;99.90
59660;DHT22;45534;52.690;6.268;2023-10-08T02:39:41;13.60;99.90
59660;DHT22;45534;52.690;6.268;2023-10-08T02:42:06;13.60;99.90
59660;DHT22;45534;52.690;6.268;2023-10-08T02:44:36;13.60;99.90
59660;DHT22;45534;52.690;6.268;2023-10-08T02:47:09;13.60;99.90
59660;DHT22;45534;52.690;6.268;2023-10-08T02:49:37;13.60;99.90
59660;DHT22;45534;52.690;6.268;2023-10-08T02:52:06;13.60;99.90
59660;DHT22;45534;52.690;6.268;2023-10-08T02:54:34;13.60;99.90
59660;DHT22;45534;52.690;6.268;2023-10-08T02:57:02;13.70;99.90
59660;DHT22;45534;52.690;6.268;2023-10-08T02:59:40;13.60;99.90
59660;DHT22;45534;52.690;6.268;2023-10-08T03:02:13;13.60;99.90
59660;DHT22;45534;52.690;6.268;2023-10-08T03:04:43;13.60;99.90
59660;DHT22;45534;52.690;6.268;2023-10-08T03:07:12;13.60;99.90
59660;DHT22;45534;52.690;6.268;2023-10-08T03:09:47;13.60;99.90
59660;DHT22;45534;52.690;6.268;2023-10-08T03:12:15;13.60;99.90
59660;DHT22;45534;52.690;6.268;2023-10-08T03:14:43;13.60;99.90
59660;DHT22;45534;52.690;6.268;2023-10-08T03:17:28;13.60;99.90
59660;DHT22;45534;52.690;6.268;2023-10-08T03:19:55;13.60;99.90
59660;DHT22;45534;52.690;6.268;2023-10-08T03:22:40;13.60;99.90
59660;DHT22;45534;52.690;6.268;2023-10-08T03:25:10;13.60;99.90
59660;DHT22;45534;52.690;6.268;2023-10-08T03:27:42;13.60;99.90
59660;DHT22;45534;52.690;6.268;2023-10-08T03:30:09;13.60;99.90
59660;DHT22;45534;52.690;6.268;2023-10-08T03:32:40;13.60;99.90
59660;DHT22;45534;52.690;6.268;2023-10-08T03:35:08;13.60;99.90
59660;DHT22;45534;52.690;6.268;2023-10-08T03:37:37;13.60;99.90
59660;DHT22;45534;52.690;6.268;2023-10-08T03:40:15;13.60;99.90
59660;DHT22;45534;52.690;6.268;2023-10-08T03:42:55;13.60;99.90
59660;DHT22;45534;52.690;6.268;2023-10-08T03:45:21;13.60;99.90
59660;DHT22;45534;52.690;6.268;2023-10-08T03:48:05;13.60;99.90
59660;DHT22;45534;52.690;6.268;2023-10-08T03:50:32;13.60;99.90
59660;DHT22;45534;52.690;6.268;2023-10-08T03:53:08;13.60;99.90
59660;DHT22;45534;52.690;6.268;2023-10-08T03:55:40;13.50;99.90
59660;DHT22;45534;52.690;6.268;2023-10-08T03:58:09;13.60;99.90
59660;DHT22;45534;52.690;6.268;2023-10-08T04:00:55;13.50;99.90
59660;DHT22;45534;52.690;6.268;2023-10-08T04:03:43;13.50;99.90
59660;DHT22;45534;52.690;6.268;2023-10-08T04:06:22;13.50;99.90
59660;DHT22;45534;52.690;6.268;2023-10-08T04:08:54;13.50;99.90
59660;DHT22;45534;52.690;6.268;2023-10-08T04:11:36;13.50;99.90
59660;DHT22;45534;52.690;6.268;2023-10-08T04:14:07;13.50;99.90
59660;DHT22;45534;52.690;6.268;2023-10-08T04:16:33;13.40;99.90
59660;DHT22;45534;52.690;6.268;2023-10-08T04:19:04;13.40;99.90
59660;DHT22;45534;52.690;6.268;2023-10-08T04:21:30;13.40;99.90
59660;DHT22;45534;52.690;6.268;2023-10-08T04:23:59;13.40;99.90
59660;DHT22;45534;52.690;6.268;2023-10-08T04:26:33;13.40;99.90
59660;DHT22;45534;52.690;6.268;2023-10-08T04:29:01;13.40;99.90
59660;DHT22;45534;52.690;6.268;2023-10-08T04:31:35;13.40;99.90
59660;DHT22;45534;52.690;6.268;2023-10-08T04:34:04;13.40;99.90
59660;DHT22;45534;52.690;6.268;2023-10-08T04:36:56;13.40;99.90
59660;DHT22;45534;52.690;6.268;2023-10-08T04:39:30;13.40;99.90
59660;DHT22;45534;52.690;6.268;2023-10-08T04:42:02;13.40;99.90
59660;DHT22;45534;52.690;6.268;2023-10-08T04:44:32;13.40;99.90
59660;DHT22;45534;52.690;6.268;2023-10-08T04:46:59;13.30;99.90
59660;DHT22;45534;52.690;6.268;2023-10-08T04:49:30;13.30;99.90
59660;DHT22;45534;52.690;6.268;2023-10-08T04:52:01;13.30;99.90
59660;DHT22;45534;52.690;6.268;2023-10-08T04:54:34;13.30;99.90
59660;DHT22;45534;52.690;6.268;2023-10-08T04:57:06;13.20;99.90
59660;DHT22;45534;52.690;6.268;2023-10-08T04:59:32;13.20;99.90
59660;DHT22;45534;52.690;6.268;2023-10-08T05:02:04;13.20;99.90
59660;DHT22;45534;52.690;6.268;2023-10-08T05:04:41;13.20;99.90
59660;DHT22;45534;52.690;6.268;2023-10-08T05:07:26;13.20;99.90
59660;DHT22;45534;52.690;6.268;2023-10-08T05:10:10;13.20;99.90
59660;DHT22;45534;52.690;6.268;2023-10-08T05:12:52;13.20;99.90
59660;DHT22;45534;52.690;6.268;2023-10-08T05:15:31;13.20;99.90
59660;DHT22;45534;52.690;6.268;2023-10-08T05:18:31;13.20;99.90
59660;DHT22;45534;52.690;6.268;2023-10-08T05:21:15;13.20;99.90
59660;DHT22;45534;52.690;6.268;2023-10-08T05:23:51;13.20;99.90
59660;DHT22;45534;52.690;6.268;2023-10-08T05:26:37;13.20;99.90
59660;DHT22;45534;52.690;6.268;2023-10-08T05:29:08;13.20;99.90
59660;DHT22;45534;52.690;6.268;2023-10-08T05:31:53;13.10;99.90
59660;DHT22;45534;52.690;6.268;2023-10-08T05:34:40;13.20;99.90
59660;DHT22;45534;52.690;6.268;2023-10-08T05:37:17;13.10;99.90
59660;DHT22;45534;52.690;6.268;2023-10-08T05:39:58;13.10;99.90
59660;DHT22;45534;52.690;6.268;2023-10-08T05:42:44;13.10;99.90
59660;DHT22;45534;52.690;6.268;2023-10-08T05:45:15;13.10;99.90
59660;DHT22;45534;52.690;6.268;2023-10-08T05:47:54;13.10;99.90
59660;DHT22;45534;52.690;6.268;2023-10-08T05:50:43;13.10;99.90
59660;DHT22;45534;52.690;6.268;2023-10-08T05:53:20;13.10;99.90
59660;DHT22;45534;52.690;6.268;2023-10-08T05:56:06;13.10;99.90
59660;DHT22;45534;52.690;6.268;2023-10-08T05:58:41;13.10;99.90
59660;DHT22;45534;52.690;6.268;2023-10-08T06:01:26;13.10;99.90
59660;DHT22;45534;52.690;6.268;2023-10-08T06:04:05;13.10;99.90
59660;DHT22;45534;52.690;6.268;2023-10-08T06:06:50;13.10;99.90
59660;DHT22;45534;52.690;6.268;2023-10-08T06:09:36;13.10;99.90
59660;DHT22;45534;52.690;6.268;2023-10-08T06:12:03;13.10;99.90
59660;DHT22;45534;52.690;6.268;2023-10-08T06:14:36;13.10;99.90
59660;DHT22;45534;52.690;6.268;2023-10-08T06:17:21;13.10;99.90
59660;DHT22;45534;52.690;6.268;2023-10-08T06:20:00;13.10;99.90
59660;DHT22;45534;52.690;6.268;2023-10-08T06:22:27;13.10;99.90
59660;DHT22;45534;52.690;6.268;2023-10-08T06:24:53;13.10;99.90
59660;DHT22;45534;52.690;6.268;2023-10-08T06:27:38;13.10;99.90
59660;DHT22;45534;52.690;6.268;2023-10-08T06:30:06;13.10;99.90
59660;DHT22;45534;52.690;6.268;2023-10-08T06:32:31;13.10;99.90
59660;DHT22;45534;52.690;6.268;2023-10-08T06:34:57;13.10;99.90
59660;DHT22;45534;52.690;6.268;2023-10-08T06:37:23;13.10;99.90
59660;DHT22;45534;52.690;6.268;2023-10-08T06:39:48;13.10;99.90
59660;DHT22;45534;52.690;6.268;2023-10-08T06:42:14;13.10;99.90
59660;DHT22;45534;52.690;6.268;2023-10-08T06:44:41;13.10;99.90
59660;DHT22;45534;52.690;6.268;2023-10-08T06:47:12;13.10;99.90
59660;DHT22;45534;52.690;6.268;2023-10-08T06:49:42;13.10;99.90
59660;DHT22;45534;52.690;6.268;2023-10-08T06:52:09;13.10;99.90
59660;DHT22;45534;52.690;6.268;2023-10-08T06:54:38;13.10;99.90
59660;DHT22;45534;52.690;6.268;2023-10-08T06:57:03;13.10;99.90
59660;DHT22;45534;52.690;6.268;2023-10-08T06:59:29;13.10;99.90
59660;DHT22;45534;52.690;6.268;2023-10-08T07:01:57;13.10;99.90
59660;DHT22;45534;52.690;6.268;2023-10-08T07:04:24;13.10;99.90
59660;DHT22;45534;52.690;6.268;2023-10-08T07:06:50;13.10;99.90
59660;DHT22;45534;52.690;6.268;2023-10-08T07:09:17;13.20;99.90
59660;DHT22;45534;52.690;6.268;2023-10-08T07:11:55;13.20;99.90
59660;DHT22;45534;52.690;6.268;2023-10-08T07:14:26;13.20;99.90
59660;DHT22;45534;52.690;6.268;2023-10-08T07:16:59;13.30;99.90
59660;DHT22;45534;52.690;6.268;2023-10-08T07:19:26;13.30;99.90
59660;DHT22;45534;52.690;6.268;2023-10-08T07:22:03;13.40;99.90
59660;DHT22;45534;52.690;6.268;2023-10-08T07:24:31;13.40;99.90
59660;DHT22;45534;52.690;6.268;2023-10-08T07:27:01;13.40;99.90
59660;DHT22;45534;52.690;6.268;2023-10-08T07:29:35;13.40;99.90
59660;DHT22;45534;52.690;6.268;2023-10-08T07:32:00;13.50;99.90
59660;DHT22;45534;52.690;6.268;2023-10-08T07:34:36;13.50;99.90
59660;DHT22;45534;52.690;6.268;2023-10-08T07:37:02;13.50;99.90
59660;DHT22;45534;52.690;6.268;2023-10-08T07:39:27;13.50;99.90
59660;DHT22;45534;52.690;6.268;2023-10-08T07:41:56;13.50;99.90
59660;DHT22;45534;52.690;6.268;2023-10-08T07:44:22;13.50;99.90
59660;DHT22;45534;52.690;6.268;2023-10-08T07:46:52;13.50;99.90
59660;DHT22;45534;52.690;6.268;2023-10-08T07:49:24;13.50;99.90
59660;DHT22;45534;52.690;6.268;2023-10-08T07:51:59;13.60;99.90
59660;DHT22;45534;52.690;6.268;2023-10-08T07:54:26;13.60;99.90
59660;DHT22;45534;52.690;6.268;2023-10-08T07:56:55;13.60;99.90
59660;DHT22;45534;52.690;6.268;2023-10-08T07:59:57;13.60;99.90
59660;DHT22;45534;52.690;6.268;2023-10-08T08:02:42;13.70;99.90
59660;DHT22;45534;52.690;6.268;2023-10-08T08:05:08;13.70;99.90
59660;DHT22;45534;52.690;6.268;2023-10-08T08:07:34;13.70;99.90
59660;DHT22;45534;52.690;6.268;2023-10-08T08:09:59;13.80;99.90
59660;DHT22;45534;52.690;6.268;2023-10-08T08:12:27;13.90;99.90
59660;DHT22;45534;52.690;6.268;2023-10-08T08:14:54;13.90;99.90
59660;DHT22;45534;52.690;6.268;2023-10-08T08:17:20;14.00;99.90
59660;DHT22;45534;52.690;6.268;2023-10-08T08:19:50;14.00;99.90
59660;DHT22;45534;52.690;6.268;2023-10-08T08:22:20;14.00;99.90
59660;DHT22;45534;52.690;6.268;2023-10-08T08:24:52;14.00;99.90
59660;DHT22;45534;52.690;6.268;2023-10-08T08:27:19;14.00;99.90
59660;DHT22;45534;52.690;6.268;2023-10-08T08:30:05;14.00;99.90
59660;DHT22;45534;52.690;6.268;2023-10-08T08:32:41;14.10;99.90
59660;DHT22;45534;52.690;6.268;2023-10-08T08:35:11;14.10;99.90
59660;DHT22;45534;52.690;6.268;2023-10-08T08:37:37;14.20;99.90
59660;DHT22;45534;52.690;6.268;2023-10-08T08:40:09;14.20;99.90
59660;DHT22;45534;52.690;6.268;2023-10-08T08:42:46;14.20;99.90
59660;DHT22;45534;52.690;6.268;2023-10-08T08:45:13;14.20;99.90
59660;DHT22;45534;52.690;6.268;2023-10-08T08:47:41;14.30;99.90
59660;DHT22;45534;52.690;6.268;2023-10-08T08:50:08;14.30;99.90
59660;DHT22;45534;52.690;6.268;2023-10-08T08:52:38;14.40;99.90
59660;DHT22;45534;52.690;6.268;2023-10-08T08:55:09;14.40;99.90
59660;DHT22;45534;52.690;6.268;2023-10-08T08:57:42;14.50;99.90
59660;DHT22;45534;52.690;6.268;2023-10-08T09:00:11;14.60;99.90
59660;DHT22;45534;52.690;6.268;2023-10-08T09:02:38;14.60;99.90
59660;DHT22;45534;52.690;6.268;2023-10-08T09:05:04;14.70;99.90
59660;DHT22;45534;52.690;6.268;2023-10-08T09:07:57;14.70;99.90
59660;DHT22;45534;52.690;6.268;2023-10-08T09:10:25;14.80;99.90
59660;DHT22;45534;52.690;6.268;2023-10-08T09:12:58;14.80;99.90
59660;DHT22;45534;52.690;6.268;2023-10-08T09:15:28;14.90;99.90
59660;DHT22;45534;52.690;6.268;2023-10-08T09:17:54;14.90;99.90
59660;DHT22;45534;52.690;6.268;2023-10-08T09:20:21;14.90;99.90
59660;DHT22;45534;52.690;6.268;2023-10-08T09:23:06;15.00;99.90
59660;DHT22;45534;52.690;6.268;2023-10-08T09:25:33;15.10;99.90
59660;DHT22;45534;52.690;6.268;2023-10-08T09:27:59;15.20;99.90
59660;DHT22;45534;52.690;6.268;2023-10-08T09:30:29;15.20;99.90
59660;DHT22;45534;52.690;6.268;2023-10-08T09:32:55;15.30;99.90
59660;DHT22;45534;52.690;6.268;2023-10-08T09:35:22;15.30;99.90
59660;DHT22;45534;52.690;6.268;2023-10-08T09:37:50;15.40;99.90
59660;DHT22;45534;52.690;6.268;2023-10-08T09:40:17;15.50;99.90
59660;DHT22;45534;52.690;6.268;2023-10-08T09:42:47;15.50;99.90
59660;DHT22;45534;52.690;6.268;2023-10-08T09:45:13;15.60;99.90
59660;DHT22;45534;52.690;6.268;2023-10-08T09:47:43;15.60;99.90
59660;DHT22;45534;52.690;6.268;2023-10-08T09:50:15;15.60;99.90
59660;DHT22;45534;52.690;6.268;2023-10-08T09:53:06;15.60;99.90
59660;DHT22;45534;52.690;6.268;2023-10-08T09:55:36;15.60;99.90
59660;DHT22;45534;52.690;6.268;2023-10-08T09:58:03;15.70;99.90
59660;DHT22;45534;52.690;6.268;2023-10-08T10:00:30;15.70;99.90
59660;DHT22;45534;52.690;6.268;2023-10-08T10:03:02;15.80;99.90
59660;DHT22;45534;52.690;6.268;2023-10-08T10:05:32;16.00;99.90
59660;DHT22;45534;52.690;6.268;2023-10-08T10:08:02;16.10;99.90
59660;DHT22;45534;52.690;6.268;2023-10-08T10:10:33;16.20;99.90
59660;DHT22;45534;52.690;6.268;2023-10-08T10:13:09;16.30;99.90
59660;DHT22;45534;52.690;6.268;2023-10-08T10:15:41;16.40;99.90
59660;DHT22;45534;52.690;6.268;2023-10-08T10:18:17;16.50;99.90
59660;DHT22;45534;52.690;6.268;2023-10-08T10:21:39;16.60;99.90
59660;DHT22;45534;52.690;6.268;2023-10-08T10:23:49;16.70;99.90
59660;DHT22;45534;52.690;6.268;2023-10-08T10:31:38;16.60;99.90
59660;DHT22;45534;52.690;6.268;2023-10-08T10:34:10;16.60;99.90
59660;DHT22;45534;52.690;6.268;2023-10-08T10:36:40;16.70;99.90
59660;DHT22;45534;52.690;6.268;2023-10-08T10:39:07;16.60;99.90
59660;DHT22;45534;52.690;6.268;2023-10-08T10:41:50;16.60;99.90
59660;DHT22;45534;52.690;6.268;2023-10-08T10:44:17;16.60;99.90
59660;DHT22;45534;52.690;6.268;2023-10-08T10:46:44;16.60;99.90
59660;DHT22;45534;52.690;6.268;2023-10-08T10:49:19;16.70;99.90
59660;DHT22;45534;52.690;6.268;2023-10-08T10:51:56;16.70;99.90
59660;DHT22;45534;52.690;6.268;2023-10-08T10:54:25;16.70;99.90
59660;DHT22;45534;52.690;6.268;2023-10-08T10:56:51;16.70;99.90
59660;DHT22;45534;52.690;6.268;2023-10-08T10:59:30;16.70;99.90
59660;DHT22;45534;52.690;6.268;2023-10-08T11:02:03;16.80;99.90
59660;DHT22;45534;52.690;6.268;2023-10-08T11:04:47;17.00;99.90
59660;DHT22;45534;52.690;6.268;2023-10-08T11:07:21;17.30;99.90
59660;DHT22;45534;52.690;6.268;2023-10-08T11:09:47;17.50;99.90
59660;DHT22;45534;52.690;6.268;2023-10-08T11:12:14;17.60;99.90
59660;DHT22;45534;52.690;6.268;2023-10-08T11:14:46;17.60;99.90
59660;DHT22;45534;52.690;6.268;2023-10-08T11:17:16;17.70;99.90
59660;DHT22;45534;52.690;6.268;2023-10-08T11:19:43;17.80;99.90
59660;DHT22;45534;52.690;6.268;2023-10-08T11:22:15;18.20;99.90
59660;DHT22;45534;52.690;6.268;2023-10-08T11:24:45;18.50;99.90
59660;DHT22;45534;52.690;6.268;2023-10-08T11:27:17;18.60;99.90
59660;DHT22;45534;52.690;6.268;2023-10-08T11:29:54;18.50;99.90
59660;DHT22;45534;52.690;6.268;2023-10-08T11:32:24;18.50;99.90
59660;DHT22;45534;52.690;6.268;2023-10-08T11:34:58;18.40;99.90
59660;DHT22;45534;52.690;6.268;2023-10-08T11:37:47;18.20;99.90
59660;DHT22;45534;52.690;6.268;2023-10-08T11:40:25;18.00;99.90
59660;DHT22;45534;52.690;6.268;2023-10-08T11:43:00;17.80;99.90
59660;DHT22;45534;52.690;6.268;2023-10-08T11:45:29;17.70;99.90
59660;DHT22;45534;52.690;6.268;2023-10-08T11:48:07;17.70;99.90
59660;DHT22;45534;52.690;6.268;2023-10-08T11:50:38;17.70;99.90
59660;DHT22;45534;52.690;6.268;2023-10-08T11:53:05;17.90;99.90
59660;DHT22;45534;52.690;6.268;2023-10-08T11:55:35;18.20;99.90
59660;DHT22;45534;52.690;6.268;2023-10-08T11:58:05;18.50;99.90
59660;DHT22;45534;52.690;6.268;2023-10-08T12:00:38;18.70;99.90
59660;DHT22;45534;52.690;6.268;2023-10-08T12:03:14;18.80;99.90
59660;DHT22;45534;52.690;6.268;2023-10-08T12:05:44;18.70;99.90
59660;DHT22;45534;52.690;6.268;2023-10-08T12:08:19;18.60;99.90
59660;DHT22;45534;52.690;6.268;2023-10-08T12:10:46;18.80;99.90
59660;DHT22;45534;52.690;6.268;2023-10-08T12:13:14;18.90;99.90
59660;DHT22;45534;52.690;6.268;2023-10-08T12:15:44;19.10;99.90
59660;DHT22;45534;52.690;6.268;2023-10-08T12:18:10;19.20;99.90
59660;DHT22;45534;52.690;6.268;2023-10-08T12:20:55;19.20;99.90
59660;DHT22;45534;52.690;6.268;2023-10-08T12:23:21;19.20;99.90
59660;DHT22;45534;52.690;6.268;2023-10-08T12:25:55;19.30;99.90
59660;DHT22;45534;52.690;6.268;2023-10-08T12:28:25;19.30;99.90
59660;DHT22;45534;52.690;6.268;2023-10-08T12:30:51;19.40;99.90
59660;DHT22;45534;52.690;6.268;2023-10-08T12:33:24;19.50;99.90
59660;DHT22;45534;52.690;6.268;2023-10-08T12:35:51;19.60;99.90
59660;DHT22;45534;52.690;6.268;2023-10-08T12:38:24;19.60;99.90
59660;DHT22;45534;52.690;6.268;2023-10-08T12:40:54;19.60;99.90
59660;DHT22;45534;52.690;6.268;2023-10-08T12:43:24;19.90;99.90
59660;DHT22;45534;52.690;6.268;2023-10-08T12:45:53;20.00;99.90
59660;DHT22;45534;52.690;6.268;2023-10-08T12:48:24;20.00;99.90
59660;DHT22;45534;52.690;6.268;2023-10-08T12:50:50;20.00;99.90
59660;DHT22;45534;52.690;6.268;2023-10-08T12:53:23;20.20;99.90
59660;DHT22;45534;52.690;6.268;2023-10-08T12:55:53;20.60;99.90
59660;DHT22;45534;52.690;6.268;2023-10-08T12:58:23;21.10;99.90
59660;DHT22;45534;52.690;6.268;2023-10-08T13:00:55;21.20;99.90
59660;DHT22;45534;52.690;6.268;2023-10-08T13:03:26;20.80;99.90
59660;DHT22;45534;52.690;6.268;2023-10-08T13:05:57;20.80;99.90
59660;DHT22;45534;52.690;6.268;2023-10-08T13:08:32;21.00;99.90
59660;DHT22;45534;52.690;6.268;2023-10-08T13:10:59;20.80;99.90
59660;DHT22;45534;52.690;6.268;2023-10-08T13:13:30;20.50;99.90
59660;DHT22;45534;52.690;6.268;2023-10-08T13:15:56;20.30;99.90
59660;DHT22;45534;52.690;6.268;2023-10-08T13:18:23;20.40;99.90
59660;DHT22;45534;52.690;6.268;2023-10-08T13:20:52;20.60;99.90
59660;DHT22;45534;52.690;6.268;2023-10-08T13:23:19;20.60;99.90
59660;DHT22;45534;52.690;6.268;2023-10-08T13:25:47;20.20;99.90
59660;DHT22;45534;52.690;6.268;2023-10-08T13:28:20;19.70;99.90
59660;DHT22;45534;52.690;6.268;2023-10-08T13:30:47;19.40;99.90
59660;DHT22;45534;52.690;6.268;2023-10-08T13:33:12;19.20;99.90
59660;DHT22;45534;52.690;6.268;2023-10-08T13:35:38;19.00;99.90
59660;DHT22;45534;52.690;6.268;2023-10-08T13:38:04;18.90;99.90
59660;DHT22;45534;52.690;6.268;2023-10-08T13:40:35;18.50;99.90
59660;DHT22;45534;52.690;6.268;2023-10-08T13:43:05;18.30;99.90
59660;DHT22;45534;52.690;6.268;2023-10-08T13:45:32;18.10;99.90
59660;DHT22;45534;52.690;6.268;2023-10-08T13:48:03;18.00;99.90
59660;DHT22;45534;52.690;6.268;2023-10-08T13:50:31;17.80;99.90
59660;DHT22;45534;52.690;6.268;2023-10-08T13:52:59;17.80;99.90
59660;DHT22;45534;52.690;6.268;2023-10-08T13:55:25;17.90;99.90
59660;DHT22;45534;52.690;6.268;2023-10-08T13:57:54;17.90;99.90
59660;DHT22;45534;52.690;6.268;2023-10-08T14:00:20;17.90;99.90
59660;DHT22;45534;52.690;6.268;2023-10-08T14:02:51;17.90;99.90
59660;DHT22;45534;52.690;6.268;2023-10-08T14:05:19;18.20;99.90
59660;DHT22;45534;52.690;6.268;2023-10-08T14:07:50;18.50;99.90
59660;DHT22;45534;52.690;6.268;2023-10-08T14:10:16;18.60;99.90
59660;DHT22;45534;52.690;6.268;2023-10-08T14:12:46;18.60;99.90
59660;DHT22;45534;52.690;6.268;2023-10-08T14:15:16;18.40;99.90
59660;DHT22;45534;52.690;6.268;2023-10-08T14:17:44;18.40;99.90
59660;DHT22;45534;52.690;6.268;2023-10-08T14:20:14;18.40;99.90
59660;DHT22;45534;52.690;6.268;2023-10-08T14:22:41;18.40;99.90
59660;DHT22;45534;52.690;6.268;2023-10-08T14:25:09;18.40;99.90
59660;DHT22;45534;52.690;6.268;2023-10-08T14:27:39;18.30;99.90
59660;DHT22;45534;52.690;6.268;2023-10-08T14:30:08;18.20;99.90
59660;DHT22;45534;52.690;6.268;2023-10-08T14:32:43;18.10;99.90
59660;DHT22;45534;52.690;6.268;2023-10-08T14:35:14;17.90;99.90
59660;DHT22;45534;52.690;6.268;2023-10-08T14:37:59;17.60;99.90
59660;DHT22;45534;52.690;6.268;2023-10-08T14:40:44;17.50;99.90
59660;DHT22;45534;52.690;6.268;2023-10-08T14:43:28;17.40;99.90
59660;DHT22;45534;52.690;6.268;2023-10-08T14:45:57;17.30;99.90
59660;DHT22;45534;52.690;6.268;2023-10-08T14:48:24;17.20;99.90
59660;DHT22;45534;52.690;6.268;2023-10-08T14:50:52;17.30;99.90
59660;DHT22;45534;52.690;6.268;2023-10-08T14:53:19;17.20;99.90
59660;DHT22;45534;52.690;6.268;2023-10-08T14:55:45;17.20;99.90
59660;DHT22;45534;52.690;6.268;2023-10-08T14:58:12;17.20;99.90
59660;DHT22;45534;52.690;6.268;2023-10-08T15:00:39;17.20;99.90
59660;DHT22;45534;52.690;6.268;2023-10-08T15:03:07;17.20;99.90
59660;DHT22;45534;52.690;6.268;2023-10-08T15:05:34;17.30;99.90
59660;DHT22;45534;52.690;6.268;2023-10-08T15:08:02;17.20;99.90
59660;DHT22;45534;52.690;6.268;2023-10-08T15:10:30;17.20;99.90
59660;DHT22;45534;52.690;6.268;2023-10-08T15:12:56;17.10;99.90
59660;DHT22;45534;52.690;6.268;2023-10-08T15:15:22;17.10;99.90
59660;DHT22;45534;52.690;6.268;2023-10-08T15:17:50;17.00;99.90
59660;DHT22;45534;52.690;6.268;2023-10-08T15:20:17;16.90;99.90
59660;DHT22;45534;52.690;6.268;2023-10-08T15:22:46;16.90;99.90
59660;DHT22;45534;52.690;6.268;2023-10-08T15:25:15;16.90;99.90
59660;DHT22;45534;52.690;6.268;2023-10-08T15:27:43;16.80;99.90
59660;DHT22;45534;52.690;6.268;2023-10-08T15:30:14;16.80;99.90
59660;DHT22;45534;52.690;6.268;2023-10-08T15:32:45;16.70;99.90
59660;DHT22;45534;52.690;6.268;2023-10-08T15:35:13;16.70;99.90
59660;DHT22;45534;52.690;6.268;2023-10-08T15:37:46;16.70;99.90
59660;DHT22;45534;52.690;6.268;2023-10-08T15:40:11;16.70;99.90
59660;DHT22;45534;52.690;6.268;2023-10-08T15:42:51;16.60;99.90
59660;DHT22;45534;52.690;6.268;2023-10-08T15:45:17;16.60;99.90
59660;DHT22;45534;52.690;6.268;2023-10-08T15:47:43;16.50;99.90
59660;DHT22;45534;52.690;6.268;2023-10-08T15:50:09;16.40;99.90
59660;DHT22;45534;52.690;6.268;2023-10-08T15:52:38;16.30;99.90
59660;DHT22;45534;52.690;6.268;2023-10-08T15:55:07;16.20;99.90
59660;DHT22;45534;52.690;6.268;2023-10-08T15:57:34;16.10;99.90
59660;DHT22;45534;52.690;6.268;2023-10-08T15:59:59;16.00;99.90
59660;DHT22;45534;52.690;6.268;2023-10-08T16:02:25;16.00;99.90